Zprávy METAR z letišť v České republice

LKPR - Praha Ruzyně, Česká republika
Aktualizováno: 12.12.2018 19:30
 
Teplota vzduchu: -2°C
Chlad větru: -6°C
Vítr: SZ 7 km/h
Rosný bod: -3°C
Vlhkost vzduchu: 93%
Tlak vzduchu: 1021 hPa
Stav počasí: opar
Oblačnost: skoro jasno
Viditelnost: 5 km
Detaily oblačnosti: skoro jasno 61 m
2018/12/12 18:30 LKPR 121830Z 31004KT 280V340 5000 BR FEW002 M02/M03 Q1021 TEMPO BKN002
LKTB - Brno Tuřany, Česká republika
Aktualizováno: 12.12.2018 19:30
 
Teplota vzduchu: 0°C
Chlad větru: -3°C
Vítr: S 9 km/h
Rosný bod: -3°C
Vlhkost vzduchu: 80%
Tlak vzduchu: 1021 hPa
Stav počasí: Jasno
Oblačnost: jasná obloha
Viditelnost: více než 10 km
2018/12/12 18:30 LKTB 121830Z 35005KT CAVOK 00/M03 Q1021 R27/29//95 NOSIG
 
LKKV - Karlovy Vary, Česká republika
Aktualizováno: 12.12.2018 19:30
 
Teplota vzduchu: -2°C
Chlad větru: -6°C
Vítr: SV 7 km/h
Rosný bod: -4°C
Vlhkost vzduchu: 86%
Tlak vzduchu: 1020 hPa
Stav počasí: mírnější sníh
Oblačnost: skoro zataženo
Viditelnost: 10 km
Detaily oblačnosti: skoro zataženo 1219 m
2018/12/12 18:30 LKKV 121830Z 04004KT 010V090 9999 -SN BKN040 M02/M04 Q1020 R29///////
LKMT - Ostrava Mošnov, Česká republika
Aktualizováno: 12.12.2018 19:30
 
Teplota vzduchu: 0°C
Vítr: SSV 6 km/h
Rosný bod: -1°C
Vlhkost vzduchu: 93%
Tlak vzduchu: 1021 hPa
Stav počasí: opar
Oblačnost: zataženo
Viditelnost: 5 km
Detaily oblačnosti: zataženo 274 m
2018/12/12 18:30 LKMT 121830Z 02003KT 5000 BR OVC009 00/M01 Q1021 R04/290195 NOSIG
 
LKPD - Pardubice, Česká republika
Aktualizováno: 12.12.2018 19:03
 
Teplota vzduchu: 0°C
Vítr: S 6 km/h
Rosný bod: -2°C
Vlhkost vzduchu: 87%
Tlak vzduchu: 1022 hPa
Oblačnost: oblačno
Viditelnost: 8 km
2018/12/12 18:03 LKPD 121803Z 01003KT 8000 NSC 00/M02 Q1022 NOSIG
LKKB - Praha Kbely, Česká republika
Aktualizováno: 12.12.2018 15:08
Není aktuální
 
Teplota vzduchu: 1°C
Vítr: SV 6 km/h
Rosný bod: -1°C
Vlhkost vzduchu: 87%
Tlak vzduchu: 1021 hPa
Oblačnost: skoro zataženo
Viditelnost: 10 km
Detaily oblačnosti: skoro jasno 366 m
skoro zataženo 610 m
skoro zataženo 1006 m
2018/12/12 14:08 LKKB 121408Z 05003KT 330V090 9999 FEW012 BKN020 BKN033 01/M01 Q1021
 
LKCV - Čáslav, Česká republika
Aktualizováno: 12.12.2018 13:00
Není aktuální
 
Teplota vzduchu: 0°C
Chlad větru: -3°C
Vítr: SV 7 km/h
Rosný bod: 0°C
Vlhkost vzduchu: 100%
Tlak vzduchu: 1020 hPa
Stav počasí: sníh
Oblačnost: zataženo
Viditelnost: 1 km
Detaily oblačnosti: skoro zataženo 274 m
zataženo 610 m
2018/12/12 12:00 LKCV 121200Z 04004KT 1300 R31/1400U SN BKN009 OVC020 00/00 Q1020 NOSIG RMK BLACK
LKNA - Náměšť n. Osl., Česká republika
Aktualizováno: 12.12.2018 13:00
Není aktuální
 
Teplota vzduchu: 0°C
Chlad větru: -4°C
Vítr: SZ 15 km/h
Rosný bod: -1°C
Vlhkost vzduchu: 93%
Tlak vzduchu: 1018 hPa
Oblačnost: skoro zataženo
Viditelnost: 10 km
Detaily oblačnosti: skoro jasno 244 m
oblačno 762 m
skoro zataženo 1646 m
2018/12/12 12:00 LKNA 121200Z 31008KT 9999 FEW008 SCT025 BKN054 M00/M01 Q1018 RMK GRN GRN
 
LKLN - Plzeň Líně, Česká republika
Aktualizováno: 12.12.2018 19:46
 
Teplota vzduchu: 0°C
Vítr: SV 6 km/h
Rosný bod: -1°C
Vlhkost vzduchu: 93%
Tlak vzduchu: 1022 hPa
Oblačnost: zataženo
Viditelnost: 10 km
Detaily oblačnosti: skoro jasno 122 m
skoro zataženo 213 m
zataženo 335 m
2018/12/12 18:46 LKLN 121846Z AUTO 04003KT 350V080 9999 FEW004 BKN007 OVC011 M00/M01 Q1022
LKVO - Vodochody, Česká republika
Aktualizováno: 12.12.2018 16:00
Není aktuální
 
Teplota vzduchu: 2°C
Vítr: proměnlivý 6 km/h
Rosný bod: -1°C
Vlhkost vzduchu: 81%
Tlak vzduchu: 1021 hPa
Stav počasí: mírnější sníh
Oblačnost: skoro zataženo
Viditelnost: 9 km
Detaily oblačnosti: skoro zataženo 823 m
2018/12/12 15:00 LKVO 121500Z VRB03KT 9000 -SN BKN027 02/M01 Q1021

Metar display script od Saratoga-Weather.org
upravil a přeložil Miloš Jiřík